createdAt,value
2024-03-14T00:04:10.855Z,8.70
2024-03-14T00:09:32.247Z,9.07
2024-03-14T00:14:53.798Z,9.75
2024-03-14T00:20:16.210Z,9.10
2024-03-14T00:25:37.636Z,12.98
2024-03-14T00:30:58.718Z,12.45
2024-03-14T00:36:20.074Z,12.48
2024-03-14T00:41:41.772Z,12.60
2024-03-14T00:47:02.939Z,13.05
2024-03-14T00:52:24.564Z,13.15
2024-03-14T00:57:45.675Z,10.43
2024-03-14T01:03:07.031Z,13.52
2024-03-14T01:08:28.953Z,12.38
2024-03-14T01:13:50.515Z,12.75
2024-03-14T01:19:11.618Z,12.75
2024-03-14T01:24:33.135Z,14.75
2024-03-14T01:29:54.765Z,12.05
2024-03-14T01:35:16.123Z,13.15
2024-03-14T01:40:37.335Z,15.73
2024-03-14T01:45:58.538Z,17.60
2024-03-14T01:51:19.783Z,17.58
2024-03-14T01:56:41.186Z,16.05
2024-03-14T02:02:02.446Z,17.98
2024-03-14T02:07:28.598Z,17.90
2024-03-14T02:12:50.019Z,17.85
2024-03-14T02:18:11.366Z,18.52
2024-03-14T02:23:32.998Z,17.40
2024-03-14T02:28:54.277Z,17.15
2024-03-14T02:34:15.737Z,16.67
2024-03-14T02:39:37.187Z,17.70
2024-03-14T02:44:58.442Z,17.17
2024-03-14T02:50:21.281Z,17.95
2024-03-14T02:55:42.665Z,17.75
2024-03-14T03:01:05.323Z,16.90
2024-03-14T03:06:26.655Z,18.77
2024-03-14T03:11:48.343Z,17.90
2024-03-14T03:17:09.713Z,18.80
2024-03-14T03:22:31.045Z,16.35
2024-03-14T03:27:53.328Z,16.30
2024-03-14T03:33:15.028Z,17.42
2024-03-14T03:38:36.564Z,26.10
2024-03-14T03:43:58.072Z,19.73
2024-03-14T03:49:19.933Z,21.75
2024-03-14T03:54:41.494Z,20.88
2024-03-14T04:00:03.249Z,22.08
2024-03-14T04:05:26.197Z,22.73
2024-03-14T04:10:47.249Z,21.80
2024-03-14T04:16:08.561Z,21.35
2024-03-14T04:21:29.810Z,18.90
2024-03-14T04:26:51.208Z,24.63
2024-03-14T04:32:12.702Z,22.35
2024-03-14T04:37:34.065Z,19.98
2024-03-14T04:42:55.538Z,21.88
2024-03-14T04:48:16.874Z,20.85
2024-03-14T04:53:38.529Z,17.92
2024-03-14T04:59:00.032Z,20.35
2024-03-14T05:04:21.427Z,20.27
2024-03-14T05:09:42.661Z,19.33
2024-03-14T05:15:04.452Z,20.77
2024-03-14T05:20:25.820Z,22.63
2024-03-14T05:25:46.919Z,23.33
2024-03-14T05:31:08.085Z,23.83
2024-03-14T05:36:29.492Z,22.08
2024-03-14T05:41:51.056Z,26.23
2024-03-14T05:47:12.345Z,22.65
2024-03-14T05:52:34.296Z,24.27
2024-03-14T05:57:55.546Z,22.90
2024-03-14T06:03:16.724Z,29.77
2024-03-14T06:08:38.201Z,28.05
2024-03-14T06:14:00.484Z,34.13
2024-03-14T06:19:21.706Z,30.52
2024-03-14T06:24:43.238Z,35.08
2024-03-14T06:30:05.778Z,27.30
2024-03-14T06:35:26.935Z,27.83
2024-03-14T06:40:48.037Z,30.52
2024-03-14T06:46:09.503Z,28.25
2024-03-14T06:51:31.335Z,28.50
2024-03-14T06:56:52.503Z,26.85
2024-03-14T07:02:13.741Z,26.20
2024-03-14T07:07:34.917Z,23.58
2024-03-14T07:12:55.942Z,25.50
2024-03-14T07:18:17.088Z,22.25
2024-03-14T07:23:38.581Z,21.52
2024-03-14T07:28:59.959Z,22.48
2024-03-14T07:34:21.114Z,20.23
2024-03-14T07:39:42.493Z,23.35
2024-03-14T07:45:04.062Z,21.42
2024-03-14T07:50:25.590Z,19.77
2024-03-14T07:55:46.757Z,19.42
2024-03-14T08:01:08.156Z,20.85
2024-03-14T08:06:29.950Z,17.55
2024-03-14T08:11:51.386Z,16.92
2024-03-14T08:17:12.780Z,14.50
2024-03-14T08:22:33.949Z,13.55
2024-03-14T08:27:55.609Z,12.80
2024-03-14T08:33:17.062Z,12.75
2024-03-14T08:38:38.387Z,14.27
2024-03-14T08:43:59.985Z,12.63
2024-03-14T08:49:21.768Z,12.85
2024-03-14T08:54:43.192Z,12.90
2024-03-14T09:00:05.304Z,12.77
2024-03-14T09:05:27.456Z,14.18
2024-03-14T09:10:55.195Z,11.88
2024-03-14T09:16:16.937Z,11.05
2024-03-14T09:33:07.384Z,9.88
2024-03-14T09:38:29.133Z,13.07
2024-03-14T09:43:51.908Z,11.70
2024-03-14T09:49:20.343Z,10.88
2024-03-14T09:54:41.932Z,10.52
2024-03-14T10:00:06.783Z,8.68
2024-03-14T10:05:33.743Z,11.15
2024-03-14T10:10:55.005Z,8.73
2024-03-14T10:16:16.104Z,15.55
2024-03-14T10:21:37.916Z,9.95
2024-03-14T10:27:03.124Z,7.70
2024-03-14T10:32:26.384Z,9.00
2024-03-14T10:37:48.453Z,6.43
2024-03-14T10:43:12.288Z,6.93
2024-03-14T10:48:33.765Z,7.40
2024-03-14T10:53:55.939Z,6.20
2024-03-14T10:59:17.953Z,7.85
2024-03-14T11:04:39.178Z,7.65
2024-03-14T11:10:01.208Z,9.00
2024-03-14T11:15:23.086Z,8.63
2024-03-14T11:20:49.833Z,5.97
2024-03-14T11:26:16.779Z,6.50
2024-03-14T11:31:44.094Z,7.45
2024-03-14T11:37:05.499Z,6.03
2024-03-14T11:42:26.926Z,6.57
2024-03-14T11:47:48.023Z,6.00
2024-03-14T11:53:11.235Z,6.35
2024-03-14T11:58:32.877Z,5.30
2024-03-14T12:03:54.241Z,5.10
2024-03-14T12:09:16.202Z,6.22
2024-03-14T12:14:37.828Z,5.40
2024-03-14T12:19:59.085Z,5.45
2024-03-14T12:25:20.359Z,5.75
2024-03-14T12:30:41.973Z,5.85
2024-03-14T12:36:04.085Z,5.00
2024-03-14T12:41:26.167Z,6.93
2024-03-14T12:46:47.853Z,7.00
2024-03-14T12:52:12.080Z,5.55
2024-03-14T12:57:33.435Z,4.70
2024-03-14T13:02:59.385Z,6.70
2024-03-14T13:08:20.966Z,4.50
2024-03-14T13:13:43.148Z,5.00
2024-03-14T13:19:04.649Z,5.43
2024-03-14T13:24:26.388Z,6.82
2024-03-14T13:29:47.679Z,4.05
2024-03-14T13:35:08.757Z,4.78
2024-03-14T13:40:30.051Z,3.90
2024-03-14T13:45:51.311Z,3.47
2024-03-14T13:51:12.576Z,4.50
2024-03-14T13:56:34.261Z,5.82
2024-03-14T14:01:55.440Z,4.93
2024-03-14T14:07:17.127Z,4.57
2024-03-14T14:12:38.369Z,4.97
2024-03-14T14:17:59.940Z,4.53
2024-03-14T14:23:21.525Z,5.30
2024-03-14T14:28:42.837Z,4.70
2024-03-14T14:34:04.046Z,5.03
2024-03-14T14:39:25.252Z,5.93
2024-03-14T14:44:46.707Z,5.50
2024-03-14T14:50:10.274Z,5.63
2024-03-14T14:55:31.414Z,5.45
2024-03-14T15:00:52.580Z,6.10
2024-03-14T15:06:14.258Z,6.15
2024-03-14T15:11:35.720Z,6.60
2024-03-14T15:16:57.201Z,6.70
2024-03-14T15:22:18.302Z,7.22
2024-03-14T15:27:42.765Z,5.80
2024-03-14T15:33:04.077Z,7.45
2024-03-14T15:38:25.809Z,5.03
2024-03-14T15:43:46.874Z,6.65
2024-03-14T15:49:08.377Z,5.30
2024-03-14T15:54:29.812Z,6.82
2024-03-14T15:59:51.394Z,5.65
2024-03-14T16:05:12.781Z,9.15
2024-03-14T16:10:36.078Z,4.75
2024-03-14T16:15:57.476Z,6.45
2024-03-14T16:21:19.588Z,5.75
2024-03-14T16:26:41.255Z,5.93
2024-03-14T16:32:04.224Z,8.73
2024-03-14T16:48:13.007Z,8.05
2024-03-14T16:53:34.513Z,6.93
2024-03-14T16:58:55.705Z,6.53
2024-03-14T17:04:17.063Z,6.18
2024-03-14T17:09:38.913Z,6.35
2024-03-14T17:15:00.026Z,8.85
2024-03-14T17:20:21.164Z,8.13
2024-03-14T17:25:42.402Z,9.75
2024-03-14T17:31:04.151Z,10.32
2024-03-14T17:36:25.270Z,8.65
2024-03-14T17:41:46.801Z,12.13
2024-03-14T17:47:08.013Z,8.40
2024-03-14T17:52:29.371Z,9.38
2024-03-14T17:57:51.156Z,9.07
2024-03-14T18:03:12.530Z,9.38
2024-03-14T18:08:33.902Z,11.20
2024-03-14T18:13:55.083Z,8.00
2024-03-14T18:19:16.659Z,9.80
2024-03-14T18:24:38.112Z,9.38
2024-03-14T18:29:59.692Z,8.50
2024-03-14T18:35:21.366Z,9.48
2024-03-14T18:40:42.592Z,9.77
2024-03-14T18:46:04.413Z,10.63
2024-03-14T18:51:27.427Z,11.40
2024-03-14T18:56:48.836Z,9.18
2024-03-14T19:02:09.981Z,10.82
2024-03-14T19:07:31.117Z,9.63
2024-03-14T19:12:52.266Z,9.35
2024-03-14T19:18:14.417Z,10.60
2024-03-14T19:23:36.125Z,9.98
2024-03-14T19:28:57.282Z,8.82
2024-03-14T19:34:18.699Z,12.65
2024-03-14T19:39:39.895Z,12.00
2024-03-14T19:45:01.558Z,15.13
2024-03-14T19:50:22.902Z,12.20
2024-03-14T19:55:44.351Z,14.35
2024-03-14T20:01:05.525Z,19.08
2024-03-14T20:06:26.907Z,18.77
2024-03-14T20:11:48.144Z,16.10
2024-03-14T20:17:09.424Z,16.67
2024-03-14T20:22:31.375Z,15.85
2024-03-14T20:27:54.253Z,15.33
2024-03-14T20:33:15.494Z,16.10
2024-03-14T20:38:37.202Z,14.80
2024-03-14T20:43:58.630Z,17.23
2024-03-14T20:49:20.138Z,14.98
2024-03-14T20:54:52.172Z,17.85
2024-03-14T21:00:14.741Z,14.50
2024-03-14T21:05:36.843Z,13.02
2024-03-14T21:10:58.372Z,15.55
2024-03-14T21:16:19.573Z,13.32
2024-03-14T21:21:40.881Z,15.18
2024-03-14T21:27:02.565Z,14.63
2024-03-14T21:32:23.984Z,13.93
2024-03-14T21:37:45.101Z,12.77
2024-03-14T21:43:06.858Z,12.77
2024-03-14T21:48:28.323Z,13.00
2024-03-14T21:53:49.885Z,10.80
2024-03-14T21:59:11.026Z,11.02
2024-03-14T22:04:32.438Z,11.02
2024-03-14T22:09:53.529Z,12.40
2024-03-14T22:15:15.140Z,10.98
2024-03-14T22:20:36.609Z,13.25
2024-03-14T22:25:58.179Z,12.85
2024-03-14T22:31:19.367Z,9.52
2024-03-14T22:36:40.964Z,9.02
2024-03-14T22:42:02.456Z,9.65
2024-03-14T22:47:23.513Z,11.98
2024-03-14T22:52:44.813Z,10.65
2024-03-14T22:58:06.052Z,9.63
2024-03-14T23:03:27.309Z,10.77
2024-03-14T23:08:48.638Z,8.35
2024-03-14T23:14:09.866Z,10.63
2024-03-14T23:19:31.273Z,10.85
2024-03-14T23:24:52.591Z,10.38
2024-03-14T23:30:14.211Z,11.95
2024-03-14T23:35:35.606Z,10.43
2024-03-14T23:40:56.849Z,14.15
2024-03-14T23:46:18.002Z,11.05
2024-03-14T23:51:39.314Z,10.20
2024-03-14T23:57:00.411Z,9.18
